Huvudsida
METAR-TAF:

METAR-TAF

Flygplatser :

Djibouti, Djibouti

latitud: 11-33N, longitud: 043-10E, höjd: 49 m

Aktuellt väderrapport

Denna rapport gjordes för 47 minuter sedan, klockan 10:00 UTC
Vind 12 kt från ost/sydost
Temperatur 32°C
Fuktighet 52%
Tryck 1017 hPa
Sikt 10 km eller mer
Få moln på en höjd av 2300 ft

METAR: HDAM 171000Z 12012KT 9999 FEW023 32/21 Q1017

Tid: 13:47 (10:47 UTC)

Väderprognos

Denna rapport gjordes för 5 timmar och 47 minuter sedan, klockan 05:00 UTC
Prognos gäller från 17 kl. 06 UTC till 18 kl. 06 UTC
Vind 10 kt från ost
Sikt 10 km eller mer
Få moln på en höjd av 2300 ft
Blir
från 17 kl. 15 UTC till 17 kl. 18 UTC
Vind 3 kt varierande vindriktning
Få moln på en höjd av 2300 ft
Spridda moln på en höjd av 2000 ft
Blir
från 18 kl. 00 UTC till 18 kl. 06 UTC
Vind 10 kt från ost
Spridda moln på en höjd av 2000 ft
Spridda moln på en höjd av 3000 ft

TAF: HDAM 170500Z 1706/1806 10010KT 9999 FEW023 BECMG 1715/1718 VRB03KT FEW023 SCT020 BECMG 1800/1806 08010KT SCT020 SCT030

Aktuella väderrapporter och prognoser från 4000 flygplatser (METAR- och TAF-rapporter).

De tillgängliga stationerna syns som gula och röda prickar på kartan.

För musen över prickarna för att se namnen på stationerna.

Klicka sedan för att få väderrapporter och prognoser.

För att ändra kartan: Klicka på de gröna knapparna med ett svart kors på för att zooma in; den gröna knappen med ett streck på för att zooma ut; eller på de gröna pilarna för angränsande kartor.


METAR-TAF: